createdAt,value
2019-05-20T00:00:08.074Z,98422.00
2019-05-20T00:02:37.194Z,98419.00
2019-05-20T00:05:06.346Z,98419.00
2019-05-20T00:07:35.681Z,98420.00
2019-05-20T00:10:07.706Z,98421.00
2019-05-20T00:12:37.055Z,98415.00
2019-05-20T00:15:06.553Z,98420.00
2019-05-20T00:17:35.654Z,98411.00
2019-05-20T00:20:06.582Z,98422.00
2019-05-20T00:22:35.964Z,98426.00
2019-05-20T00:25:07.349Z,98429.00
2019-05-20T00:27:36.458Z,98438.00
2019-05-20T00:30:07.657Z,98438.00
2019-05-20T00:32:41.096Z,98438.00
2019-05-20T00:35:10.770Z,98447.00
2019-05-20T00:37:40.133Z,98442.00
2019-05-20T00:40:10.033Z,98439.00
2019-05-20T00:42:39.145Z,98442.00
2019-05-20T00:45:09.044Z,98440.00
2019-05-20T00:47:38.232Z,98432.00
2019-05-20T00:50:07.500Z,98433.00
2019-05-20T00:52:36.935Z,98426.00
2019-05-20T00:55:12.485Z,98419.00
2019-05-20T00:57:41.569Z,98423.00
2019-05-20T01:00:11.320Z,98420.00
2019-05-20T01:02:40.374Z,98420.00
2019-05-20T01:05:09.607Z,98412.00
2019-05-20T01:07:38.727Z,98415.00
2019-05-20T01:10:08.238Z,98423.00
2019-05-20T01:12:37.596Z,98416.00
2019-05-20T01:15:08.133Z,98414.00
2019-05-20T01:17:37.232Z,98408.00
2019-05-20T01:20:06.934Z,98408.00
2019-05-20T01:22:36.010Z,98401.00
2019-05-20T01:25:06.211Z,98408.00
2019-05-20T01:27:35.310Z,98395.00
2019-05-20T01:30:06.454Z,98401.00
2019-05-20T01:32:35.536Z,98396.00
2019-05-20T01:35:06.951Z,98394.00
2019-05-20T01:37:36.053Z,98398.00
2019-05-20T01:40:05.956Z,98398.00
2019-05-20T01:42:35.062Z,98396.00
2019-05-20T01:45:04.872Z,98395.00
2019-05-20T01:47:34.201Z,98390.00
2019-05-20T01:50:04.818Z,98392.00
2019-05-20T01:52:33.905Z,98388.00
2019-05-20T01:55:03.379Z,98396.00
2019-05-20T01:57:32.771Z,98382.00
2019-05-20T02:00:02.171Z,98387.00
2019-05-20T02:02:31.246Z,98386.00
2019-05-20T02:05:00.632Z,98384.00
2019-05-20T02:07:29.999Z,98378.00
2019-05-20T02:09:59.129Z,98384.00
2019-05-20T02:12:28.507Z,98384.00
2019-05-20T02:15:15.706Z,98381.00
2019-05-20T02:17:44.795Z,98382.00
2019-05-20T02:20:15.791Z,98379.00
2019-05-20T02:22:45.164Z,98375.00
2019-05-20T02:25:14.967Z,98370.00
2019-05-20T02:27:44.074Z,98372.00
2019-05-20T02:30:13.293Z,98370.00
2019-05-20T02:32:42.615Z,98364.00
2019-05-20T02:35:11.786Z,98364.00
2019-05-20T02:37:40.884Z,98353.00
2019-05-20T02:40:10.556Z,98353.00
2019-05-20T02:42:39.633Z,98352.00
2019-05-20T02:45:09.091Z,98336.00
2019-05-20T02:47:38.463Z,98332.00
2019-05-20T02:50:08.424Z,98335.00
2019-05-20T02:52:37.769Z,98345.00
2019-05-20T02:55:08.171Z,98335.00
2019-05-20T02:57:37.532Z,98329.00
2019-05-20T03:00:08.451Z,98323.00
2019-05-20T03:02:37.864Z,98330.00
2019-05-20T03:05:07.010Z,98329.00
2019-05-20T03:07:36.117Z,98331.00
2019-05-20T03:10:06.346Z,98325.00
2019-05-20T03:12:35.764Z,98329.00
2019-05-20T03:15:06.019Z,98330.00
2019-05-20T03:17:35.160Z,98326.00
2019-05-20T03:20:05.007Z,98325.00
2019-05-20T03:22:34.122Z,98329.00
2019-05-20T03:25:04.239Z,98333.00
2019-05-20T03:27:33.424Z,98333.00
2019-05-20T03:30:02.557Z,98336.00
2019-05-20T03:32:31.977Z,98345.00
2019-05-20T03:35:01.663Z,98350.00
2019-05-20T03:37:31.583Z,98341.00
2019-05-20T03:40:00.663Z,98338.00
2019-05-20T03:42:30.053Z,98344.00
2019-05-20T03:44:59.106Z,98344.00
2019-05-20T03:47:28.501Z,98341.00
2019-05-20T03:49:57.837Z,98330.00
2019-05-20T03:52:26.971Z,98331.00
2019-05-20T03:54:56.341Z,98335.00
2019-05-20T03:57:25.478Z,98326.00
2019-05-20T03:59:54.841Z,98326.00
2019-05-20T04:02:24.247Z,98330.00
2019-05-20T04:05:02.532Z,98331.00
2019-05-20T04:07:24.074Z,98332.00
2019-05-20T04:09:53.416Z,98330.00
2019-05-20T04:12:22.777Z,98331.00
2019-05-20T04:14:51.874Z,98335.00
2019-05-20T04:17:21.566Z,98328.00
2019-05-20T04:19:50.679Z,98338.00
2019-05-20T04:22:19.815Z,98339.00
2019-05-20T04:24:49.062Z,98343.00
2019-05-20T04:27:18.700Z,98337.00
2019-05-20T04:29:47.811Z,98342.00
2019-05-20T04:32:17.235Z,98343.00
2019-05-20T04:34:46.321Z,98339.00
2019-05-20T04:37:15.462Z,98348.00
2019-05-20T04:39:44.571Z,98355.00
2019-05-20T04:42:13.699Z,98361.00
2019-05-20T04:44:43.067Z,98354.00
2019-05-20T04:47:12.170Z,98359.00
2019-05-20T04:49:41.291Z,98351.00
2019-05-20T04:52:10.672Z,98364.00
2019-05-20T04:54:40.293Z,98364.00
2019-05-20T04:57:09.436Z,98368.00
2019-05-20T04:59:38.559Z,98358.00
2019-05-20T05:02:07.654Z,98367.00
2019-05-20T05:04:36.769Z,98372.00
2019-05-20T05:07:05.875Z,98372.00
2019-05-20T05:09:35.030Z,98368.00
2019-05-20T05:12:04.376Z,98379.00
2019-05-20T05:14:33.511Z,98382.00
2019-05-20T05:17:02.953Z,98382.00
2019-05-20T05:19:32.289Z,98390.00
2019-05-20T05:22:01.464Z,98391.00
2019-05-20T05:24:30.544Z,98389.00
2019-05-20T05:26:59.923Z,98382.00
2019-05-20T05:29:28.997Z,98378.00
2019-05-20T05:31:58.084Z,98383.00
2019-05-20T05:34:27.195Z,98382.00
2019-05-20T05:36:56.281Z,98391.00
2019-05-20T05:39:25.397Z,98390.00
2019-05-20T05:41:54.466Z,98383.00
2019-05-20T05:44:23.555Z,98383.00
2019-05-20T05:46:52.636Z,98384.00
2019-05-20T05:49:21.759Z,98382.00
2019-05-20T05:51:51.122Z,98383.00
2019-05-20T05:54:20.206Z,98381.00
2019-05-20T05:56:49.299Z,98377.00
2019-05-20T05:59:18.432Z,98380.00
2019-05-20T06:01:47.512Z,98381.00
2019-05-20T06:04:16.914Z,98375.00
2019-05-20T06:06:46.309Z,98374.00
2019-05-20T06:09:15.443Z,98382.00
2019-05-20T06:11:44.587Z,98380.00
2019-05-20T06:14:13.679Z,98375.00
2019-05-20T06:16:43.024Z,98376.00
2019-05-20T06:19:12.158Z,98380.00
2019-05-20T06:21:41.290Z,98383.00
2019-05-20T06:24:10.412Z,98385.00
2019-05-20T06:26:39.509Z,98379.00
2019-05-20T06:29:08.652Z,98386.00
2019-05-20T06:31:37.770Z,98387.00
2019-05-20T06:34:06.883Z,98386.00
2019-05-20T06:36:37.627Z,98380.00
2019-05-20T06:39:11.563Z,98378.00
2019-05-20T06:41:40.870Z,98380.00
2019-05-20T06:44:09.980Z,98377.00
2019-05-20T06:46:39.359Z,98375.00
2019-05-20T06:49:08.490Z,98367.00
2019-05-20T06:51:37.570Z,98374.00
2019-05-20T06:54:07.976Z,98382.00
2019-05-20T06:56:37.151Z,98379.00
2019-05-20T06:59:06.289Z,98374.00
2019-05-20T07:01:35.637Z,98380.00
2019-05-20T07:04:04.841Z,98384.00
2019-05-20T07:06:46.131Z,98371.00
2019-05-20T07:09:06.444Z,98370.00
2019-05-20T07:11:35.563Z,98373.00
2019-05-20T07:14:04.942Z,98367.00
2019-05-20T07:16:34.065Z,98375.00
2019-05-20T07:19:03.273Z,98364.00
2019-05-20T07:21:32.425Z,98375.00
2019-05-20T07:24:01.541Z,98375.00
2019-05-20T07:26:30.738Z,98376.00
2019-05-20T07:28:59.936Z,98378.00
2019-05-20T07:31:30.477Z,98375.00
2019-05-20T07:33:59.599Z,98385.00
2019-05-20T07:36:28.722Z,98374.00
2019-05-20T07:38:57.822Z,98378.00
2019-05-20T07:41:26.902Z,98383.00
2019-05-20T07:43:55.988Z,98377.00
2019-05-20T07:46:25.193Z,98377.00
2019-05-20T07:48:54.309Z,98374.00
2019-05-20T07:51:24.084Z,98376.00
2019-05-20T07:53:54.080Z,98371.00
2019-05-20T07:56:26.835Z,98376.00
2019-05-20T07:59:00.663Z,98382.00
2019-05-20T08:01:30.271Z,98379.00
2019-05-20T08:03:59.402Z,98383.00
2019-05-20T08:06:28.531Z,98387.00
2019-05-20T08:08:58.751Z,98387.00
2019-05-20T08:11:27.939Z,98383.00
2019-05-20T08:13:57.030Z,98382.00
2019-05-20T08:16:26.441Z,98380.00
2019-05-20T08:18:55.568Z,98376.00
2019-05-20T08:21:24.886Z,98390.00
2019-05-20T08:23:54.059Z,98389.00
2019-05-20T08:26:23.250Z,98386.00
2019-05-20T08:28:52.328Z,98381.00
2019-05-20T08:31:21.439Z,98390.00
2019-05-20T08:33:58.876Z,98383.00
2019-05-20T08:36:28.094Z,98389.00
2019-05-20T08:38:57.157Z,98400.00
2019-05-20T08:41:26.569Z,98395.00
2019-05-20T08:43:55.933Z,98386.00
2019-05-20T08:46:25.054Z,98392.00
2019-05-20T08:49:02.819Z,98387.00
2019-05-20T08:51:34.590Z,98389.00
2019-05-20T08:54:03.675Z,98395.00
2019-05-20T08:56:32.760Z,98397.00
2019-05-20T08:59:02.285Z,98402.00
2019-05-20T09:01:34.306Z,98397.00
2019-05-20T09:04:04.522Z,98403.00
2019-05-20T09:06:34.017Z,98404.00
2019-05-20T09:09:04.768Z,98404.00
2019-05-20T09:11:33.914Z,98402.00
2019-05-20T09:14:03.285Z,98394.00
2019-05-20T09:16:32.353Z,98402.00
2019-05-20T09:19:01.657Z,98398.00
2019-05-20T09:21:31.026Z,98394.00
2019-05-20T09:24:00.160Z,98390.00
2019-05-20T09:26:29.699Z,98392.00
2019-05-20T09:28:59.222Z,98387.00
2019-05-20T09:31:31.209Z,98385.00
2019-05-20T09:34:00.669Z,98382.00
2019-05-20T09:36:29.855Z,98383.00
2019-05-20T09:38:59.273Z,98381.00
2019-05-20T09:41:28.678Z,98380.00
2019-05-20T09:43:57.907Z,98375.00
2019-05-20T09:46:27.038Z,98381.00
2019-05-20T09:48:56.377Z,98383.00
2019-05-20T09:51:25.526Z,98379.00
2019-05-20T09:53:54.663Z,98378.00
2019-05-20T09:56:24.041Z,98374.00
2019-05-20T09:58:53.146Z,98379.00
2019-05-20T10:01:22.263Z,98373.00
2019-05-20T10:03:51.355Z,98379.00
2019-05-20T10:06:20.681Z,98369.00
2019-05-20T10:08:49.791Z,98379.00
2019-05-20T10:11:19.106Z,98379.00
2019-05-20T10:13:48.477Z,98373.00
2019-05-20T10:16:17.590Z,98375.00
2019-05-20T10:18:47.028Z,98377.00
2019-05-20T10:21:16.109Z,98365.00
2019-05-20T10:23:45.231Z,98369.00
2019-05-20T10:26:14.323Z,98375.00
2019-05-20T10:28:47.168Z,98371.00
2019-05-20T10:31:14.197Z,98367.00
2019-05-20T10:33:43.283Z,98376.00
2019-05-20T10:36:12.399Z,98376.00
2019-05-20T10:38:56.766Z,98363.00
2019-05-20T10:41:13.236Z,98366.00
2019-05-20T10:43:44.188Z,98367.00
2019-05-20T10:46:13.681Z,98375.00
2019-05-20T10:48:43.064Z,98372.00
2019-05-20T10:51:15.399Z,98380.00
2019-05-20T10:53:44.542Z,98367.00
2019-05-20T10:56:19.258Z,98370.00
2019-05-20T10:58:47.892Z,98364.00
2019-05-20T11:01:16.995Z,98368.00
2019-05-20T11:03:46.082Z,98375.00
2019-05-20T11:06:15.162Z,98364.00
2019-05-20T11:08:44.606Z,98362.00
2019-05-20T11:11:14.715Z,98355.00
2019-05-20T11:13:43.963Z,98349.00
2019-05-20T11:16:13.303Z,98355.00
2019-05-20T11:18:42.852Z,98352.00
2019-05-20T11:21:12.308Z,98349.00
2019-05-20T11:23:41.723Z,98352.00
2019-05-20T11:26:10.838Z,98360.00
2019-05-20T11:28:40.223Z,98355.00
2019-05-20T11:31:09.331Z,98355.00
2019-05-20T11:33:38.704Z,98360.00
2019-05-20T11:36:09.976Z,98351.00
2019-05-20T11:38:39.231Z,98357.00
2019-05-20T11:41:08.357Z,98352.00
2019-05-20T11:43:42.497Z,98359.00
2019-05-20T11:46:22.856Z,98356.00
2019-05-20T11:48:51.933Z,98362.00
2019-05-20T11:51:21.315Z,98358.00
2019-05-20T11:53:50.417Z,98360.00
2019-05-20T11:56:19.546Z,98360.00
2019-05-20T11:58:48.682Z,98349.00
2019-05-20T12:01:17.848Z,98339.00
2019-05-20T12:03:47.214Z,98345.00
2019-05-20T12:06:16.564Z,98354.00
2019-05-20T12:08:45.664Z,98353.00
2019-05-20T12:11:14.803Z,98337.00
2019-05-20T12:13:43.934Z,98351.00
2019-05-20T12:16:13.024Z,98349.00
2019-05-20T12:18:45.110Z,98348.00
2019-05-20T12:21:12.866Z,98353.00
2019-05-20T12:23:41.974Z,98344.00
2019-05-20T12:26:11.373Z,98345.00
2019-05-20T12:28:40.811Z,98339.00
2019-05-20T12:31:09.990Z,98349.00
2019-05-20T12:33:39.460Z,98347.00
2019-05-20T12:36:08.698Z,98343.00
2019-05-20T12:38:38.121Z,98341.00
2019-05-20T12:41:07.411Z,98351.00
2019-05-20T12:43:36.516Z,98344.00
2019-05-20T12:46:05.908Z,98348.00
2019-05-20T12:48:35.044Z,98346.00
2019-05-20T12:51:04.457Z,98346.00
2019-05-20T12:53:33.841Z,98348.00
2019-05-20T12:56:03.332Z,98347.00
2019-05-20T12:58:32.430Z,98339.00
2019-05-20T13:01:01.780Z,98343.00
2019-05-20T13:03:30.886Z,98351.00
2019-05-20T13:05:59.976Z,98350.00
2019-05-20T13:08:29.063Z,98345.00
2019-05-20T13:10:58.432Z,98336.00
2019-05-20T13:13:27.769Z,98330.00
2019-05-20T13:15:56.902Z,98336.00
2019-05-20T13:18:26.019Z,98339.00
2019-05-20T13:20:55.138Z,98333.00
2019-05-20T13:23:24.217Z,98333.00
2019-05-20T13:25:53.316Z,98333.00
2019-05-20T13:28:22.475Z,98329.00
2019-05-20T13:30:51.525Z,98318.00
2019-05-20T13:33:20.991Z,98300.00
2019-05-20T13:35:50.380Z,98309.00
2019-05-20T13:38:19.456Z,98298.00
2019-05-20T13:40:48.816Z,98298.00
2019-05-20T13:43:17.905Z,98298.00
2019-05-20T13:45:48.212Z,98299.00
2019-05-20T13:48:17.632Z,98297.00
2019-05-20T13:50:46.743Z,98292.00
2019-05-20T13:53:15.858Z,98290.00
2019-05-20T13:55:45.091Z,98285.00
2019-05-20T13:58:14.198Z,98289.00
2019-05-20T14:00:43.575Z,98284.00
2019-05-20T14:03:12.658Z,98286.00
2019-05-20T14:05:41.797Z,98283.00
2019-05-20T14:08:11.311Z,98275.00
2019-05-20T14:10:40.859Z,98282.00
2019-05-20T14:13:10.221Z,98273.00
2019-05-20T14:15:39.636Z,98272.00
2019-05-20T14:18:08.970Z,98270.00
2019-05-20T14:20:38.114Z,98265.00
2019-05-20T14:23:07.467Z,98263.00
2019-05-20T14:25:36.610Z,98262.00
2019-05-20T14:28:05.776Z,98263.00
2019-05-20T14:30:34.974Z,98265.00
2019-05-20T14:33:04.198Z,98258.00
2019-05-20T14:35:33.359Z,98255.00
2019-05-20T14:38:02.542Z,98253.00
2019-05-20T14:40:31.673Z,98241.00
2019-05-20T14:43:01.026Z,98239.00
2019-05-20T14:45:30.450Z,98249.00
2019-05-20T14:47:59.592Z,98251.00
2019-05-20T14:50:28.715Z,98249.00
2019-05-20T14:52:58.432Z,98237.00
2019-05-20T14:55:27.977Z,98232.00
2019-05-20T14:57:57.055Z,98235.00
2019-05-20T15:00:26.157Z,98246.00
2019-05-20T15:02:55.230Z,98248.00
2019-05-20T15:05:24.353Z,98252.00
2019-05-20T15:07:53.430Z,98250.00
2019-05-20T15:10:22.600Z,98248.00
2019-05-20T15:12:51.689Z,98243.00
2019-05-20T15:15:20.821Z,98253.00
2019-05-20T15:17:49.849Z,98257.00
2019-05-20T15:20:19.197Z,98259.00
2019-05-20T15:22:48.298Z,98258.00
2019-05-20T15:25:17.381Z,98257.00
2019-05-20T15:27:49.731Z,98250.00
2019-05-20T15:30:18.124Z,98256.00
2019-05-20T15:32:47.236Z,98252.00
2019-05-20T15:35:16.345Z,98248.00
2019-05-20T15:37:45.744Z,98262.00
2019-05-20T15:40:14.957Z,98262.00
2019-05-20T15:42:44.195Z,98248.00
2019-05-20T15:45:13.742Z,98250.00
2019-05-20T15:47:46.128Z,98254.00
2019-05-20T15:50:15.969Z,98259.00
2019-05-20T15:52:45.312Z,98247.00
2019-05-20T15:55:14.755Z,98257.00
2019-05-20T15:57:43.899Z,98245.00
2019-05-20T16:00:13.575Z,98248.00
2019-05-20T16:02:42.690Z,98256.00
2019-05-20T16:05:12.225Z,98251.00
2019-05-20T16:07:41.599Z,98244.00
2019-05-20T16:10:11.506Z,98242.00
2019-05-20T16:12:40.910Z,98237.00
2019-05-20T16:15:10.294Z,98238.00
2019-05-20T16:17:39.952Z,98237.00
2019-05-20T16:20:09.196Z,98230.00
2019-05-20T16:22:38.538Z,98227.00
2019-05-20T16:25:08.572Z,98228.00
2019-05-20T16:27:37.982Z,98223.00
2019-05-20T16:30:09.453Z,98208.00
2019-05-20T16:32:39.010Z,98204.00
2019-05-20T16:35:08.674Z,98198.00
2019-05-20T16:37:38.120Z,98200.00
2019-05-20T16:40:10.063Z,98215.00
2019-05-20T16:42:39.621Z,98205.00
2019-05-20T16:45:11.911Z,98203.00
2019-05-20T16:47:40.368Z,98206.00
2019-05-20T16:50:10.312Z,98209.00
2019-05-20T16:52:39.476Z,98214.00
2019-05-20T16:55:09.413Z,98214.00
2019-05-20T16:57:38.627Z,98209.00
2019-05-20T17:00:27.884Z,98206.00
2019-05-20T17:02:39.038Z,98210.00
2019-05-20T17:05:08.517Z,98210.00
2019-05-20T17:07:37.792Z,98216.00
2019-05-20T17:10:08.289Z,98218.00
2019-05-20T17:12:37.470Z,98229.00
2019-05-20T17:15:08.122Z,98241.00
2019-05-20T17:17:37.502Z,98241.00
2019-05-20T17:20:07.123Z,98243.00
2019-05-20T17:22:36.243Z,98255.00
2019-05-20T17:25:06.968Z,98242.00
2019-05-20T17:27:36.500Z,98248.00
2019-05-20T17:30:07.197Z,98242.00
2019-05-20T17:32:36.647Z,98249.00
2019-05-20T17:35:06.274Z,98246.00
2019-05-20T17:37:35.712Z,98252.00
2019-05-20T17:40:06.896Z,98241.00
2019-05-20T17:42:36.317Z,98243.00
2019-05-20T17:45:06.586Z,98243.00
2019-05-20T17:47:36.145Z,98235.00
2019-05-20T17:50:06.789Z,98226.00
2019-05-20T17:52:36.008Z,98224.00
2019-05-20T17:55:06.872Z,98226.00
2019-05-20T17:57:36.077Z,98220.00
2019-05-20T18:00:09.672Z,98233.00
2019-05-20T18:02:39.118Z,98229.00
2019-05-20T18:05:09.251Z,98226.00
2019-05-20T18:07:38.594Z,98225.00
2019-05-20T18:10:08.521Z,98223.00
2019-05-20T18:12:37.604Z,98222.00
2019-05-20T18:15:08.479Z,98226.00
2019-05-20T18:17:37.587Z,98230.00
2019-05-20T18:20:07.640Z,98219.00
2019-05-20T18:22:36.949Z,98221.00
2019-05-20T18:25:07.614Z,98226.00
2019-05-20T18:27:36.711Z,98227.00
2019-05-20T18:30:10.113Z,98222.00
2019-05-20T18:32:39.309Z,98219.00
2019-05-20T18:35:08.839Z,98217.00
2019-05-20T18:37:38.015Z,98222.00
2019-05-20T18:40:14.049Z,98213.00
2019-05-20T18:42:41.031Z,98207.00
2019-05-20T18:45:10.368Z,98203.00
2019-05-20T18:47:40.004Z,98206.00
2019-05-20T18:50:09.803Z,98201.00
2019-05-20T18:52:39.063Z,98204.00
2019-05-20T18:55:09.301Z,98197.00
2019-05-20T18:57:41.317Z,98202.00
2019-05-20T19:00:14.950Z,98191.00
2019-05-20T19:02:49.563Z,98203.00
2019-05-20T19:05:19.851Z,98202.00
2019-05-20T19:07:50.243Z,98205.00
2019-05-20T19:10:19.827Z,98206.00
2019-05-20T19:12:48.956Z,98214.00
2019-05-20T19:15:19.053Z,98206.00
2019-05-20T19:17:48.167Z,98206.00
2019-05-20T19:20:17.441Z,98209.00
2019-05-20T19:22:46.809Z,98220.00
2019-05-20T19:25:16.327Z,98218.00
2019-05-20T19:27:45.714Z,98224.00
2019-05-20T19:30:15.414Z,98232.00
2019-05-20T19:32:44.524Z,98236.00
2019-05-20T19:35:14.068Z,98241.00
2019-05-20T19:37:43.603Z,98240.00
2019-05-20T19:40:12.990Z,98240.00
2019-05-20T19:42:42.368Z,98235.00
2019-05-20T19:45:11.565Z,98234.00
2019-05-20T19:47:42.128Z,98242.00
2019-05-20T19:50:19.385Z,98226.00
2019-05-20T19:52:48.661Z,98241.00
2019-05-20T19:55:19.051Z,98237.00
2019-05-20T19:57:48.655Z,98230.00
2019-05-20T20:00:17.867Z,98237.00
2019-05-20T20:02:53.059Z,98229.00
2019-05-20T20:05:24.075Z,98224.00
2019-05-20T20:07:53.912Z,98224.00
2019-05-20T20:10:23.371Z,98225.00
2019-05-20T20:12:52.693Z,98227.00
2019-05-20T20:15:21.991Z,98218.00
2019-05-20T20:17:51.127Z,98216.00
2019-05-20T20:20:22.788Z,98223.00
2019-05-20T20:22:52.307Z,98221.00
2019-05-20T20:25:23.495Z,98225.00
2019-05-20T20:27:53.446Z,98219.00
2019-05-20T20:30:22.890Z,98229.00
2019-05-20T20:32:56.186Z,98227.00
2019-05-20T20:35:37.292Z,98224.00
2019-05-20T20:37:58.752Z,98232.00
2019-05-20T20:40:29.701Z,98232.00
2019-05-20T20:42:58.967Z,98231.00
2019-05-20T20:45:28.280Z,98226.00
2019-05-20T20:47:58.919Z,98225.00
2019-05-20T20:50:32.286Z,98219.00
2019-05-20T20:53:01.343Z,98231.00
2019-05-20T20:55:30.767Z,98233.00
2019-05-20T20:57:59.978Z,98231.00
2019-05-20T21:00:29.086Z,98231.00
2019-05-20T21:02:58.200Z,98232.00
2019-05-20T21:05:27.304Z,98243.00
2019-05-20T21:07:56.482Z,98243.00
2019-05-20T21:10:25.591Z,98245.00
2019-05-20T21:12:54.930Z,98246.00
2019-05-20T21:15:24.316Z,98252.00
2019-05-20T21:17:53.428Z,98257.00
2019-05-20T21:20:22.818Z,98259.00
2019-05-20T21:22:52.183Z,98260.00
2019-05-20T21:25:21.545Z,98263.00
2019-05-20T21:27:50.913Z,98259.00
2019-05-20T21:30:20.097Z,98264.00
2019-05-20T21:32:49.185Z,98270.00
2019-05-20T21:35:18.307Z,98265.00
2019-05-20T21:37:47.431Z,98267.00
2019-05-20T21:40:16.784Z,98270.00
2019-05-20T21:42:45.869Z,98263.00
2019-05-20T21:45:15.353Z,98260.00
2019-05-20T21:47:45.012Z,98254.00
2019-05-20T21:50:14.161Z,98249.00
2019-05-20T21:52:43.268Z,98254.00
2019-05-20T21:55:12.529Z,98266.00
2019-05-20T21:57:41.697Z,98260.00
2019-05-20T22:00:12.734Z,98262.00
2019-05-20T22:02:42.100Z,98263.00
2019-05-20T22:05:11.626Z,98254.00
2019-05-20T22:07:40.718Z,98247.00
2019-05-20T22:10:10.713Z,98244.00
2019-05-20T22:12:40.060Z,98245.00
2019-05-20T22:15:09.608Z,98251.00
2019-05-20T22:17:38.737Z,98251.00
2019-05-20T22:20:08.221Z,98249.00
2019-05-20T22:22:50.890Z,98239.00
2019-05-20T22:25:20.205Z,98236.00
2019-05-20T22:27:49.347Z,98241.00
2019-05-20T22:30:18.464Z,98231.00
2019-05-20T22:32:47.826Z,98237.00
2019-05-20T22:35:16.935Z,98245.00
2019-05-20T22:37:46.299Z,98247.00
2019-05-20T22:40:15.407Z,98251.00
2019-05-20T22:42:44.797Z,98243.00
2019-05-20T22:45:13.886Z,98241.00
2019-05-20T22:47:43.278Z,98248.00
2019-05-20T22:50:12.644Z,98239.00
2019-05-20T22:52:41.744Z,98244.00
2019-05-20T22:55:11.137Z,98242.00
2019-05-20T22:57:40.522Z,98241.00
2019-05-20T23:00:09.670Z,98229.00
2019-05-20T23:02:39.075Z,98232.00
2019-05-20T23:05:08.260Z,98226.00
2019-05-20T23:07:37.649Z,98222.00
2019-05-20T23:10:09.121Z,98222.00
2019-05-20T23:12:38.228Z,98225.00
2019-05-20T23:15:09.281Z,98228.00
2019-05-20T23:17:38.667Z,98221.00
2019-05-20T23:20:07.817Z,98221.00
2019-05-20T23:22:37.211Z,98217.00
2019-05-20T23:25:06.429Z,98218.00
2019-05-20T23:27:35.570Z,98221.00
2019-05-20T23:30:06.290Z,98212.00
2019-05-20T23:32:35.426Z,98218.00
2019-05-20T23:35:06.178Z,98218.00
2019-05-20T23:37:35.318Z,98225.00
2019-05-20T23:40:05.943Z,98212.00
2019-05-20T23:42:35.084Z,98213.00
2019-05-20T23:45:07.319Z,98217.00
2019-05-20T23:47:36.724Z,98220.00
2019-05-20T23:50:06.044Z,98220.00
2019-05-20T23:52:35.193Z,98223.00
2019-05-20T23:55:07.218Z,98226.00
2019-05-20T23:57:36.337Z,98231.00
